Time;durP1;ratioP1;P1;durP2;ratioP2;P2;SDS_P1;SDS_P2;PMS_P1;PMS_P2;Temp;Humidity;BMP_temperature;BMP_pressure;BME280_temperature;BME280_humidity;BME280_pressure;Samples;Min_cycle;Max_cycle;Signal;HPM_P1;HPM_P2
2024/02/09 00:00:21;;;;;;;4.47;1.75;;;;;;;;;;1032280;28;20141;-76
2024/02/09 00:00:52;;;;;;;2.38;1.30;;;;;;;;;;1032607;28;20095;-76
2024/02/09 00:01:22;;;;;;;5.35;2.97;;;;;;;;;;1032435;28;20025;-77
2024/02/09 00:01:53;;;;;;;2.20;1.90;;;;;;;;;;1032717;28;20485;-76
2024/02/09 00:02:23;;;;;;;2.70;2.05;;;;;;;;;;1032503;28;20101;-76
2024/02/09 00:02:54;;;;;;;2.10;1.90;;;;;;;;;;1028159;28;20022;-76
2024/02/09 00:03:27;;;;;;;2.40;1.63;;;;;;;;;;1028017;28;20308;-76
2024/02/09 00:03:58;;;;;;;1.17;1.15;;;;;;;;;;1027302;28;20026;-76
2024/02/09 00:04:28;;;;;;;1.77;1.67;;;;;;;;;;1028136;28;20033;-76
2024/02/09 00:04:59;;;;;;;4.15;1.42;;;;;;;;;;1028384;28;20058;-76
2024/02/09 00:05:29;;;;;;;1.27;1.17;;;;;;;;;;1021859;28;20181;-76
2024/02/09 00:05:59;;;;;;;3.85;3.08;;;;;;;;;;1028359;28;20029;-76
2024/02/09 00:06:30;;;;;;;2.38;2.13;;;;;;;;;;1024069;29;20023;-76
2024/02/09 00:07:00;;;;;;;3.00;2.80;;;;;;;;;;1024393;28;20027;-76
2024/02/09 00:07:31;;;;;;;1.48;1.38;;;;;;;;;;1027715;28;20027;-76
2024/02/09 00:08:04;;;;;;;4.72;2.67;;;;;;;;;;1028557;28;20150;-76
2024/02/09 00:08:36;;;;;;;6.53;2.45;;;;;;;;;;1032501;28;20076;-76
2024/02/09 00:09:12;;;;;;;8.57;2.20;;;;;;;;;;1032261;28;20034;-75
2024/02/09 00:09:42;;;;;;;2.40;2.10;;;;;;;;;;1031567;28;20121;-75
2024/02/09 00:10:14;;;;;;;2.22;1.63;;;;;;;;;;1032403;28;20018;-76
2024/02/09 00:10:47;;;;;;;3.63;2.60;;;;;;;;;;1031364;28;20025;-76
2024/02/09 00:11:18;;;;;;;2.92;2.70;;;;;;;;;;1027930;28;20062;-76
2024/02/09 00:11:49;;;;;;;1.23;1.23;;;;;;;;;;1028916;28;20049;-76
2024/02/09 00:12:21;;;;;;;1.45;1.35;;;;;;;;;;1032523;28;20109;-76
2024/02/09 00:12:51;;;;;;;3.42;2.33;;;;;;;;;;1030577;28;20060;-76
2024/02/09 00:13:21;;;;;;;1.70;0.90;;;;;;;;;;1032312;28;20025;-76
2024/02/09 00:13:52;;;;;;;2.38;2.17;;;;;;;;;;1032499;28;20028;-76
2024/02/09 00:14:22;;;;;;;2.80;2.58;;;;;;;;;;1032519;28;20589;-76
2024/02/09 00:14:53;;;;;;;2.05;1.95;;;;;;;;;;1031937;28;20030;-76
2024/02/09 00:15:23;;;;;;;21.25;2.75;;;;;;;;;;1031815;28;20518;-76
2024/02/09 00:15:54;;;;;;;2.28;1.38;;;;;;;;;;1032581;28;20060;-76
2024/02/09 00:16:25;;;;;;;1.73;1.52;;;;;;;;;;1041804;23;20038;-76
2024/02/09 00:16:55;;;;;;;1.35;0.95;;;;;;;;;;1034313;28;20184;-76
2024/02/09 00:17:26;;;;;;;0.20;0.20;;;;;;;;;;1034084;28;20054;-76
2024/02/09 00:17:56;;;;;;;1.55;1.45;;;;;;;;;;1034669;28;20517;-76
2024/02/09 00:18:27;;;;;;;0.65;0.65;;;;;;;;;;1034202;28;20025;-76
2024/02/09 00:18:57;;;;;;;9.95;2.67;;;;;;;;;;1034297;28;20041;-76
2024/02/09 00:19:28;;;;;;;0.85;0.85;;;;;;;;;;1034569;28;20030;-76
2024/02/09 00:19:58;;;;;;;1.98;1.77;;;;;;;;;;1034755;28;20042;-76
2024/02/09 00:20:29;;;;;;;2.17;1.70;;;;;;;;;;1034479;28;20474;-76
2024/02/09 00:20:59;;;;;;;0.57;0.57;;;;;;;;;;1034457;28;20028;-76
2024/02/09 00:21:30;;;;;;;0.75;0.75;;;;;;;;;;1034020;28;20083;-76
2024/02/09 00:22:00;;;;;;;2.65;1.65;;;;;;;;;;1034572;28;20064;-76
2024/02/09 00:22:31;;;;;;;4.93;1.98;;;;;;;;;;1027992;28;20022;-76
2024/02/09 00:23:03;;;;;;;1.50;1.40;;;;;;;;;;1026249;28;20027;-76
2024/02/09 00:23:33;;;;;;;3.95;2.20;;;;;;;;;;1026339;28;20102;-76
2024/02/09 00:24:04;;;;;;;4.65;2.78;;;;;;;;;;1026737;28;20565;-76
2024/02/09 00:24:35;;;;;;;3.85;2.63;;;;;;;;;;1030155;28;20025;-76
2024/02/09 00:25:09;;;;;;;1.50;1.40;;;;;;;;;;1034026;28;20033;-76
2024/02/09 00:25:40;;;;;;;2.25;2.05;;;;;;;;;;1034716;28;20084;-76
2024/02/09 00:26:11;;;;;;;2.15;1.95;;;;;;;;;;1034999;28;20116;-76
2024/02/09 00:26:41;;;;;;;1.25;1.15;;;;;;;;;;1034269;28;20040;-76
2024/02/09 00:27:12;;;;;;;2.90;2.25;;;;;;;;;;1034157;28;20025;-76
2024/02/09 00:27:43;;;;;;;2.42;2.22;;;;;;;;;;1034466;28;20621;-76
2024/02/09 00:28:13;;;;;;;20.05;1.48;;;;;;;;;;1034289;28;20414;-76
2024/02/09 00:28:44;;;;;;;0.63;0.63;;;;;;;;;;1034347;28;20018;-76
2024/02/09 00:29:14;;;;;;;3.53;1.60;;;;;;;;;;1034223;28;20542;-77
2024/02/09 00:29:45;;;;;;;0.88;0.88;;;;;;;;;;1032890;28;20033;-76
2024/02/09 00:30:15;;;;;;;3.13;2.08;;;;;;;;;;1034211;28;20037;-76
2024/02/09 00:30:45;;;;;;;1.88;1.70;;;;;;;;;;1034465;28;20029;-76
2024/02/09 00:31:16;;;;;;;22.00;2.67;;;;;;;;;;1033440;28;20045;-76
2024/02/09 00:31:46;;;;;;;1.13;1.08;;;;;;;;;;1039366;23;20026;-76
2024/02/09 00:32:17;;;;;;;1.42;1.10;;;;;;;;;;1032168;28;20076;-76
2024/02/09 00:32:47;;;;;;;2.17;1.92;;;;;;;;;;1032061;28;20238;-76
2024/02/09 00:33:18;;;;;;;0.38;0.38;;;;;;;;;;1031026;28;20025;-76
2024/02/09 00:33:48;;;;;;;14.25;3.88;;;;;;;;;;1030479;28;20037;-76
2024/02/09 00:34:19;;;;;;;6.57;1.75;;;;;;;;;;1030227;28;20080;-76
2024/02/09 00:34:49;;;;;;;2.20;2.10;;;;;;;;;;1030212;28;20023;-76
2024/02/09 00:35:23;;;;;;;1.02;0.50;;;;;;;;;;1030410;28;20131;-76
2024/02/09 00:35:55;;;;;;;1.08;1.08;;;;;;;;;;1030110;28;20159;-76
2024/02/09 00:36:25;;;;;;;1.38;1.10;;;;;;;;;;1027951;28;20490;-77
2024/02/09 00:36:56;;;;;;;1.48;1.40;;;;;;;;;;1024030;29;20023;-76
2024/02/09 00:37:29;;;;;;;6.95;2.13;;;;;;;;;;1023842;29;20070;-76
2024/02/09 00:38:00;;;;;;;9.63;2.22;;;;;;;;;;1024383;29;20451;-77
2024/02/09 00:38:35;;;;;;;3.58;2.50;;;;;;;;;;1028536;28;20038;-77
2024/02/09 00:39:06;;;;;;;0.77;0.73;;;;;;;;;;1031613;28;20018;-76
2024/02/09 00:39:36;;;;;;;1.27;1.00;;;;;;;;;;1027914;28;20033;-77
2024/02/09 00:40:07;;;;;;;0.20;0.20;;;;;;;;;;1028203;28;20066;-78
2024/02/09 00:40:38;;;;;;;0.90;0.90;;;;;;;;;;1028021;28;20114;-77
2024/02/09 00:41:11;;;;;;;5.38;1.75;;;;;;;;;;1028248;28;20407;-76
2024/02/09 00:41:41;;;;;;;10.27;2.47;;;;;;;;;;1032262;28;20030;-77
2024/02/09 00:42:12;;;;;;;1.17;1.10;;;;;;;;;;1032574;28;20049;-77
2024/02/09 00:42:43;;;;;;;0.65;0.65;;;;;;;;;;1032452;28;20061;-76
2024/02/09 00:43:15;;;;;;;0.30;0.30;;;;;;;;;;1032337;28;20022;-76
2024/02/09 00:43:46;;;;;;;0.30;0.30;;;;;;;;;;1029504;28;20023;-80
2024/02/09 00:44:17;;;;;;;3.25;3.00;;;;;;;;;;1025329;28;20551;-81
2024/02/09 00:44:48;;;;;;;0.70;0.65;;;;;;;;;;1025012;29;20078;-84
2024/02/09 00:45:19;;;;;;;4.18;2.40;;;;;;;;;;1020100;29;20023;-77
2024/02/09 00:45:51;;;;;;;0.22;0.22;;;;;;;;;;1022879;29;20488;-78
2024/02/09 00:46:22;;;;;;;0.32;0.32;;;;;;;;;;1024303;28;20015;-79
2024/02/09 00:46:53;;;;;;;0.20;0.20;;;;;;;;;;1026329;28;20026;-80
2024/02/09 00:47:23;;;;;;;3.05;1.63;;;;;;;;;;1028117;28;20034;-78
2024/02/09 00:47:55;;;;;;;0.50;0.50;;;;;;;;;;1028370;28;20023;-79
2024/02/09 00:48:26;;;;;;;1.77;1.67;;;;;;;;;;1028323;28;20073;-78
2024/02/09 00:49:02;;;;;;;1.65;1.55;;;;;;;;;;1030760;28;20022;-79
2024/02/09 00:49:32;;;;;;;0.20;0.20;;;;;;;;;;1028093;28;20133;-79
2024/02/09 00:50:03;;;;;;;3.60;1.73;;;;;;;;;;1028344;28;20506;-80
2024/02/09 00:50:34;;;;;;;1.98;0.90;;;;;;;;;;1028043;28;20023;-80
2024/02/09 00:51:06;;;;;;;0.73;0.73;;;;;;;;;;1028088;28;20082;-79
2024/02/09 00:51:37;;;;;;;0.38;0.38;;;;;;;;;;1027510;28;20530;-78
2024/02/09 00:52:08;;;;;;;0.98;0.93;;;;;;;;;;1028464;28;20026;-77
2024/02/09 00:52:39;;;;;;;1.27;1.20;;;;;;;;;;1031971;28;20022;-77
2024/02/09 00:53:10;;;;;;;0.40;0.40;;;;;;;;;;1032155;28;20867;-77
2024/02/09 00:53:40;;;;;;;0.85;0.85;;;;;;;;;;1031137;28;20026;-79
2024/02/09 00:54:14;;;;;;;0.30;0.30;;;;;;;;;;1032336;28;20026;-80
2024/02/09 00:54:45;;;;;;;0.68;0.65;;;;;;;;;;1028183;28;20038;-78
2024/02/09 00:55:16;;;;;;;25.63;3.30;;;;;;;;;;1023836;29;20024;-77
2024/02/09 00:55:46;;;;;;;1.13;1.00;;;;;;;;;;1024077;29;20107;-77
2024/02/09 00:56:47;;;;;;;1.20;1.10;;;;;;;;;;1057812;23;20062;-77
2024/02/09 00:57:17;;;;;;;0.40;0.40;;;;;;;;;;1037081;23;20406;-76
2024/02/09 00:57:48;;;;;;;1.10;0.85;;;;;;;;;;1032180;28;20032;-76
2024/02/09 00:58:18;;;;;;;0.60;0.60;;;;;;;;;;1032299;28;20057;-77
2024/02/09 00:58:49;;;;;;;4.10;2.00;;;;;;;;;;1028703;28;20105;-77
2024/02/09 00:59:19;;;;;;;0.30;0.30;;;;;;;;;;1030632;28;20113;-78
2024/02/09 00:59:50;;;;;;;21.40;2.13;;;;;;;;;;1029924;28;20506;-77
2024/02/09 01:00:21;;;;;;;9.13;3.45;;;;;;;;;;1028231;28;20474;-77
2024/02/09 01:00:51;;;;;;;1.98;1.88;;;;;;;;;;1028141;28;20023;-77
2024/02/09 01:01:22;;;;;;;0.68;0.63;;;;;;;;;;1030955;28;20466;-76
2024/02/09 01:01:57;;;;;;;0.75;0.75;;;;;;;;;;1038134;23;20029;-77
2024/02/09 01:02:29;;;;;;;1.48;0.90;;;;;;;;;;1033590;28;20583;-76
2024/02/09 01:03:02;;;;;;;1.80;1.67;;;;;;;;;;1034291;28;20033;-76
2024/02/09 01:03:33;;;;;;;1.13;0.75;;;;;;;;;;1033980;28;20104;-76
2024/02/09 01:04:07;;;;;;;0.70;0.70;;;;;;;;;;1034997;28;20022;-76
2024/02/09 01:04:37;;;;;;;0.40;0.40;;;;;;;;;;1031647;28;20023;-76
2024/02/09 01:05:15;;;;;;;0.40;0.40;;;;;;;;;;1031986;28;20490;-76
2024/02/09 01:05:46;;;;;;;0.28;0.28;;;;;;;;;;1031980;28;20381;-76
2024/02/09 01:06:21;;;;;;;0.70;0.70;;;;;;;;;;1032433;28;20057;-76
2024/02/09 01:06:51;;;;;;;0.50;0.50;;;;;;;;;;1034386;28;20398;-76
2024/02/09 01:07:23;;;;;;;7.82;1.30;;;;;;;;;;1033305;28;20033;-78
2024/02/09 01:07:53;;;;;;;1.65;1.55;;;;;;;;;;1029464;28;20027;-77
2024/02/09 01:08:27;;;;;;;2.97;0.88;;;;;;;;;;1030062;28;20035;-76
2024/02/09 01:08:58;;;;;;;2.92;2.08;;;;;;;;;;1029727;28;20022;-76
2024/02/09 01:09:28;;;;;;;1.27;1.13;;;;;;;;;;1030456;28;20035;-76
2024/02/09 01:09:59;;;;;;;11.60;2.35;;;;;;;;;;1034897;28;20026;-79
2024/02/09 01:10:32;;;;;;;20.13;2.20;;;;;;;;;;1033257;28;20029;-76
2024/02/09 01:11:05;;;;;;;6.53;1.83;;;;;;;;;;1033463;28;20033;-76
2024/02/09 01:11:38;;;;;;;15.23;2.67;;;;;;;;;;1033175;28;20040;-77
2024/02/09 02:44:46;;;;;;;8.73;6.32;;;;;;;;;;1060208;23;20054;-77
2024/02/09 02:45:17;;;;;;;1.05;0.90;;;;;;;;;;1074629;23;20059;-77
2024/02/09 02:45:48;;;;;;;4.25;3.85;;;;;;;;;;1028328;28;20041;-77
2024/02/09 02:46:19;;;;;;;10.23;2.13;;;;;;;;;;1029082;28;20349;-77
2024/02/09 02:47:23;;;;;;;5.55;3.85;;;;;;;;;;1027410;28;20054;-76
2024/02/09 03:04:47;;;;;;;20.65;3.30;;;;;;;;;;1050544;23;20341;-79
2024/02/09 03:05:17;;;;;;;3.72;2.58;;;;;;;;;;1027259;28;20026;-78
2024/02/09 03:05:48;;;;;;;12.55;3.63;;;;;;;;;;1045667;23;20133;-76
2024/02/09 03:06:22;;;;;;;15.48;3.95;;;;;;;;;;1029388;28;20121;-76
2024/02/09 03:06:53;;;;;;;21.42;3.65;;;;;;;;;;1041720;23;20033;-78
2024/02/09 03:07:23;;;;;;;12.40;3.38;;;;;;;;;;1027153;28;20050;-76
2024/02/09 03:07:56;;;;;;;3.13;2.63;;;;;;;;;;1027389;28;20522;-76
2024/02/09 03:08:27;;;;;;;3.47;2.08;;;;;;;;;;1024535;28;20298;-77
2024/02/09 03:08:57;;;;;;;0.85;0.85;;;;;;;;;;1029211;28;22223;-78
2024/02/09 03:09:28;;;;;;;4.15;2.05;;;;;;;;;;1030107;28;20467;-76
2024/02/09 03:10:01;;;;;;;2.92;1.95;;;;;;;;;;1026358;28;20043;-76
2024/02/09 03:10:31;;;;;;;1.77;1.15;;;;;;;;;;1025577;28;20026;-78
2024/02/09 03:11:03;;;;;;;2.20;2.08;;;;;;;;;;1023869;28;20054;-76
2024/02/09 03:11:34;;;;;;;4.88;3.90;;;;;;;;;;1020177;28;20022;-76
2024/02/09 03:12:05;;;;;;;11.75;3.83;;;;;;;;;;1016729;28;20023;-76
2024/02/09 03:12:37;;;;;;;2.83;2.55;;;;;;;;;;1026928;23;20369;-77
2024/02/09 03:13:08;;;;;;;4.68;4.32;;;;;;;;;;1018499;28;20076;-77
2024/02/09 03:13:39;;;;;;;9.95;6.53;;;;;;;;;;1032226;23;20031;-76
2024/02/09 03:14:09;;;;;;;2.95;2.05;;;;;;;;;;1029139;23;20053;-77
2024/02/09 03:14:44;;;;;;;3.53;2.50;;;;;;;;;;1027342;28;20026;-77
2024/02/09 03:15:22;;;;;;;3.13;1.95;;;;;;;;;;1027238;28;20449;-77
2024/02/09 03:15:53;;;;;;;6.40;3.05;;;;;;;;;;1027726;28;20022;-78
2024/02/09 03:16:23;;;;;;;2.10;1.80;;;;;;;;;;1022659;28;20015;-76
2024/02/09 03:16:57;;;;;;;1.58;1.48;;;;;;;;;;1021729;28;20031;-77
2024/02/09 03:18:05;;;;;;;3.40;3.03;;;;;;;;;;1041653;23;20024;-77
2024/02/09 03:18:36;;;;;;;2.90;2.35;;;;;;;;;;1023572;28;20043;-77
2024/02/09 03:19:06;;;;;;;6.03;4.28;;;;;;;;;;1022192;28;20642;-77
2024/02/09 03:19:40;;;;;;;6.72;4.13;;;;;;;;;;1024239;28;20151;-76
2024/02/09 03:20:11;;;;;;;4.25;3.22;;;;;;;;;;1050597;23;20245;-76
2024/02/09 03:20:43;;;;;;;5.25;2.72;;;;;;;;;;1021307;28;20050;-77
2024/02/09 03:21:20;;;;;;;3.53;2.72;;;;;;;;;;1018705;28;20652;-77
2024/02/09 03:21:53;;;;;;;26.48;4.50;;;;;;;;;;1036563;23;20369;-77
2024/02/09 03:22:23;;;;;;;5.97;3.63;;;;;;;;;;1038987;23;20077;-77
2024/02/09 03:22:54;;;;;;;2.20;2.03;;;;;;;;;;1040779;23;20150;-76
2024/02/09 03:23:25;;;;;;;11.73;2.80;;;;;;;;;;1038300;23;20051;-79
2024/02/09 03:23:58;;;;;;;13.00;4.22;;;;;;;;;;1053222;23;20135;-78
2024/02/09 03:24:28;;;;;;;2.10;1.98;;;;;;;;;;1100746;23;20022;-79
2024/02/09 03:25:02;;;;;;;3.80;3.38;;;;;;;;;;1031890;28;20042;-80
2024/02/09 03:25:33;;;;;;;2.83;2.33;;;;;;;;;;1031060;28;20497;-79
2024/02/09 03:26:03;;;;;;;2.28;2.08;;;;;;;;;;1032333;28;20025;-79
2024/02/09 03:26:34;;;;;;;4.32;2.67;;;;;;;;;;1032527;28;20520;-79
2024/02/09 03:27:04;;;;;;;2.78;2.53;;;;;;;;;;1031095;28;20033;-81
2024/02/09 03:27:35;;;;;;;4.47;3.05;;;;;;;;;;1026372;28;20337;-81
2024/02/09 03:28:08;;;;;;;12.95;5.82;;;;;;;;;;1028312;28;20085;-81
2024/02/09 03:28:39;;;;;;;2.70;1.88;;;;;;;;;;1028212;28;20538;-79
2024/02/09 03:29:09;;;;;;;5.90;2.15;;;;;;;;;;1027702;28;20121;-79
2024/02/09 03:29:41;;;;;;;7.97;4.63;;;;;;;;;;1032555;28;20105;-80
2024/02/09 03:30:11;;;;;;;3.15;2.92;;;;;;;;;;1028580;28;20402;-79
2024/02/09 03:30:42;;;;;;;2.10;1.95;;;;;;;;;;1029868;28;20026;-79
2024/02/09 03:31:12;;;;;;;4.53;3.50;;;;;;;;;;1028941;28;20058;-79
2024/02/09 03:31:43;;;;;;;3.58;3.13;;;;;;;;;;1029152;28;20065;-79
2024/02/09 03:32:14;;;;;;;3.92;2.90;;;;;;;;;;1027438;28;20031;-79
2024/02/09 03:32:45;;;;;;;12.70;4.65;;;;;;;;;;1026600;28;20072;-79
2024/02/09 03:33:16;;;;;;;1.85;1.73;;;;;;;;;;1027043;28;20029;-80
2024/02/09 03:33:47;;;;;;;3.95;2.47;;;;;;;;;;1026712;28;20027;-79
2024/02/09 03:34:18;;;;;;;3.75;3.42;;;;;;;;;;1028167;28;20412;-80
2024/02/09 03:34:51;;;;;;;5.80;5.28;;;;;;;;;;1029231;28;20113;-78
2024/02/09 03:35:22;;;;;;;8.65;3.65;;;;;;;;;;1030511;28;20550;-80
2024/02/09 03:35:53;;;;;;;7.18;3.72;;;;;;;;;;1028438;28;20093;-78
2024/02/09 03:36:23;;;;;;;25.50;7.57;;;;;;;;;;1023759;28;20260;-78
2024/02/09 03:36:54;;;;;;;39.72;5.85;;;;;;;;;;1024613;28;21122;-79
2024/02/09 03:37:26;;;;;;;11.02;6.97;;;;;;;;;;1023694;28;20037;-78
2024/02/09 03:37:57;;;;;;;8.18;6.05;;;;;;;;;;1028274;28;20038;-79
2024/02/09 03:38:27;;;;;;;5.63;5.00;;;;;;;;;;1030953;28;20545;-78
2024/02/09 03:38:58;;;;;;;38.85;9.15;;;;;;;;;;1027290;28;20026;-78
2024/02/09 03:39:29;;;;;;;15.77;7.40;;;;;;;;;;1024701;28;21671;-79
2024/02/09 03:40:00;;;;;;;17.65;6.28;;;;;;;;;;1020563;29;20026;-79
2024/02/09 03:40:32;;;;;;;9.32;5.38;;;;;;;;;;1019502;28;20051;-78
2024/02/09 03:41:04;;;;;;;8.70;5.75;;;;;;;;;;1022033;28;20556;-79
2024/02/09 03:41:35;;;;;;;35.33;6.65;;;;;;;;;;1023822;28;20038;-80
2024/02/09 03:42:05;;;;;;;16.58;6.57;;;;;;;;;;1026823;28;20517;-79
2024/02/09 03:42:36;;;;;;;6.90;5.43;;;;;;;;;;1028998;28;20049;-79
2024/02/09 03:43:09;;;;;;;4.13;3.25;;;;;;;;;;1027184;28;20045;-78
2024/02/09 03:43:40;;;;;;;7.85;4.70;;;;;;;;;;1033559;28;20018;-78
2024/02/09 03:44:10;;;;;;;9.20;4.18;;;;;;;;;;1026872;28;20359;-79
2024/02/09 03:44:41;;;;;;;7.68;4.70;;;;;;;;;;1028779;28;20031;-79
2024/02/09 03:45:12;;;;;;;4.82;3.47;;;;;;;;;;1028015;28;20443;-79
2024/02/09 03:45:42;;;;;;;2.47;2.28;;;;;;;;;;1027244;28;20034;-77
2024/02/09 03:46:15;;;;;;;13.52;6.30;;;;;;;;;;1032775;28;20397;-79
2024/02/09 03:46:46;;;;;;;15.60;4.78;;;;;;;;;;1030625;28;20027;-79
2024/02/09 03:47:24;;;;;;;6.03;3.15;;;;;;;;;;1027132;28;20058;-79
2024/02/09 03:47:55;;;;;;;7.47;4.18;;;;;;;;;;1028912;28;20478;-80
2024/02/09 03:48:26;;;;;;;7.90;3.03;;;;;;;;;;1028605;28;20124;-80
2024/02/09 03:48:57;;;;;;;9.95;4.30;;;;;;;;;;1045464;23;20480;-80
2024/02/09 03:49:27;;;;;;;5.53;1.75;;;;;;;;;;1020501;29;20356;-79
2024/02/09 03:49:58;;;;;;;5.25;4.72;;;;;;;;;;1020464;28;20034;-81
2024/02/09 03:50:28;;;;;;;6.78;4.15;;;;;;;;;;1024775;28;20026;-80
2024/02/09 03:51:01;;;;;;;3.58;3.28;;;;;;;;;;1023402;28;20131;-80
2024/02/09 03:51:32;;;;;;;1.58;1.48;;;;;;;;;;1024417;28;20163;-80
2024/02/09 03:52:05;;;;;;;3.30;3.00;;;;;;;;;;1022452;28;20066;-79
2024/02/09 03:52:37;;;;;;;1.85;1.73;;;;;;;;;;1025557;28;20135;-78
2024/02/09 03:53:07;;;;;;;2.35;1.92;;;;;;;;;;1030087;28;20081;-79
2024/02/09 03:53:38;;;;;;;8.07;2.38;;;;;;;;;;1030043;28;20134;-78
2024/02/09 03:54:13;;;;;;;1.35;1.00;;;;;;;;;;1030127;28;20033;-77
2024/02/09 03:54:43;;;;;;;4.65;3.38;;;;;;;;;;1025928;28;20105;-79
2024/02/09 03:55:16;;;;;;;3.55;2.03;;;;;;;;;;1025613;28;20469;-78
2024/02/09 03:55:47;;;;;;;3.63;2.83;;;;;;;;;;1026237;28;20023;-79
2024/02/09 03:56:18;;;;;;;3.30;2.55;;;;;;;;;;1021517;28;20070;-77
2024/02/09 03:56:48;;;;;;;4.50;2.65;;;;;;;;;;1020517;29;20039;-80
2024/02/09 03:57:23;;;;;;;4.13;2.90;;;;;;;;;;1020626;28;20110;-79
2024/02/09 03:57:53;;;;;;;2.53;1.83;;;;;;;;;;1021279;28;20372;-80
2024/02/09 03:58:24;;;;;;;6.22;4.70;;;;;;;;;;1024955;28;20141;-80
2024/02/09 03:58:55;;;;;;;1.27;1.25;;;;;;;;;;1029613;28;20627;-80
2024/02/09 03:59:27;;;;;;;7.97;4.53;;;;;;;;;;1026924;28;20026;-80
2024/02/09 03:59:58;;;;;;;2.33;2.13;;;;;;;;;;1025114;28;20440;-82
2024/02/09 04:00:29;;;;;;;9.57;2.75;;;;;;;;;;1021885;28;20033;-80
2024/02/09 04:01:02;;;;;;;9.75;2.20;;;;;;;;;;1018148;28;20039;-79
2024/02/09 04:01:33;;;;;;;2.03;1.90;;;;;;;;;;1017677;29;20038;-78
2024/02/09 04:02:07;;;;;;;3.15;2.80;;;;;;;;;;1018296;29;20447;-81
2024/02/09 04:02:40;;;;;;;7.57;4.72;;;;;;;;;;1031223;23;20055;-81
2024/02/09 04:03:15;;;;;;;3.67;0.75;;;;;;;;;;1045948;23;20672;-77
2024/02/09 04:03:46;;;;;;;6.75;3.00;;;;;;;;;;1024738;28;20027;-83
2024/02/09 04:04:19;;;;;;;0.77;0.77;;;;;;;;;;1056638;23;20007;-75
2024/02/09 04:04:50;;;;;;;1.13;1.13;;;;;;;;;;1031760;23;20049;-77
2024/02/09 04:05:22;;;;;;;8.70;5.18;;;;;;;;;;1027087;28;20383;-76
2024/02/09 04:05:54;;;;;;;4.28;3.53;;;;;;;;;;1041854;23;20110;-77
2024/02/09 04:07:31;;;;;;;0.22;0.22;;;;;;;;;;1054471;23;20113;-79
2024/02/09 04:08:04;;;;;;;0.95;0.95;;;;;;;;;;1046680;23;20054;-79
2024/02/09 04:08:34;;;;;;;1.85;1.30;;;;;;;;;;1045153;23;20022;-79
2024/02/09 04:09:05;;;;;;;3.38;2.22;;;;;;;;;;1028600;28;20126;-77
2024/02/09 04:10:37;;;;;;;1.73;1.63;;;;;;;;;;1042333;23;20078;-79
2024/02/09 04:11:08;;;;;;;1.45;1.25;;;;;;;;;;1028209;28;20048;-78
2024/02/09 04:11:39;;;;;;;4.43;2.05;;;;;;;;;;1036268;23;20033;-76
2024/02/09 04:12:45;;;;;;;0.35;0.35;;;;;;;;;;1062441;23;20145;-80
2024/02/09 04:13:20;;;;;;;2.60;2.40;;;;;;;;;;1039057;23;20500;-78
2024/02/09 04:13:54;;;;;;;8.18;1.35;;;;;;;;;;1050796;23;20055;-79
2024/02/09 04:14:25;;;;;;;0.28;0.28;;;;;;;;;;1049382;23;20047;-76
2024/02/09 04:14:56;;;;;;;0.88;0.85;;;;;;;;;;1040037;23;20513;-78
2024/02/09 04:15:35;;;;;;;0.75;0.75;;;;;;;;;;1034579;23;20033;-81
2024/02/09 04:16:08;;;;;;;14.45;1.30;;;;;;;;;;1051431;23;20043;-79
2024/02/09 04:18:38;;;;;;;;;;;;;;;;;;1085761;23;20094;-78
2024/02/09 04:19:10;;;;;;;0.75;0.75;;;;;;;;;;1031164;28;19933;-84
2024/02/09 04:20:17;;;;;;;2.05;1.88;;;;;;;;;;1021064;28;20062;-77
2024/02/09 04:20:47;;;;;;;2.88;2.67;;;;;;;;;;1022310;28;20031;-78
2024/02/09 04:21:18;;;;;;;1.10;0.98;;;;;;;;;;1022951;28;20024;-77
2024/02/09 04:21:52;;;;;;;2.00;1.13;;;;;;;;;;1024261;28;20365;-79
2024/02/09 04:22:22;;;;;;;0.22;0.22;;;;;;;;;;1022970;28;20035;-79
2024/02/09 04:22:53;;;;;;;0.52;0.52;;;;;;;;;;1018908;28;20028;-77
2024/02/09 04:23:24;;;;;;;0.52;0.52;;;;;;;;;;1021997;28;20130;-80
2024/02/09 04:23:55;;;;;;;0.73;0.70;;;;;;;;;;1020179;28;20031;-78
2024/02/09 04:24:25;;;;;;;0.47;0.47;;;;;;;;;;1019262;29;20038;-79
2024/02/09 04:24:59;;;;;;;4.32;1.98;;;;;;;;;;1018676;29;20027;-78
2024/02/09 04:25:30;;;;;;;0.30;0.30;;;;;;;;;;1018183;28;20134;-77
2024/02/09 04:26:00;;;;;;;1.38;1.27;;;;;;;;;;1019022;29;20403;-78
2024/02/09 04:26:32;;;;;;;0.73;0.73;;;;;;;;;;1019197;29;20405;-78
2024/02/09 04:27:04;;;;;;;1.08;1.08;;;;;;;;;;1020399;28;20034;-77
2024/02/09 04:27:34;;;;;;;0.20;0.20;;;;;;;;;;1022316;28;21452;-78
2024/02/09 04:28:05;;;;;;;7.07;2.55;;;;;;;;;;1025279;28;20132;-86
2024/02/09 04:28:36;;;;;;;2.00;1.80;;;;;;;;;;1021145;28;20636;-79
2024/02/09 04:29:09;;;;;;;2.60;0.55;;;;;;;;;;1018163;29;20153;-78
2024/02/09 04:29:40;;;;;;;1.27;1.20;;;;;;;;;;1017922;29;20153;-79
2024/02/09 04:30:10;;;;;;;0.90;0.52;;;;;;;;;;1017874;29;20163;-81
2024/02/09 04:30:47;;;;;;;2.72;1.55;;;;;;;;;;1019896;28;20213;-82
2024/02/09 04:31:18;;;;;;;1.30;1.23;;;;;;;;;;1023513;28;20034;-81
2024/02/09 04:31:52;;;;;;;2.72;0.68;;;;;;;;;;1019070;28;20451;-82
2024/02/09 04:32:23;;;;;;;1.48;0.40;;;;;;;;;;1018978;29;20171;-79
2024/02/09 04:32:54;;;;;;;11.00;1.40;;;;;;;;;;1019319;28;20082;-76
2024/02/09 04:33:24;;;;;;;0.00;0.00;;;;;;;;;;1020125;28;20521;-77
2024/02/09 04:33:55;;;;;;;1.23;0.55;;;;;;;;;;1020503;28;20779;-78
2024/02/09 04:34:25;;;;;;;0.50;0.50;;;;;;;;;;1020985;28;20115;-78
2024/02/09 04:34:56;;;;;;;2.08;1.95;;;;;;;;;;1021366;28;20169;-77
2024/02/09 04:35:30;;;;;;;0.08;0.08;;;;;;;;;;1018962;28;20032;-77
2024/02/09 04:36:01;;;;;;;1.10;1.08;;;;;;;;;;1019652;28;20028;-81
2024/02/09 04:36:33;;;;;;;0.95;0.95;;;;;;;;;;1020358;29;20488;-80
2024/02/09 04:37:15;;;;;;;1.00;0.55;;;;;;;;;;1050012;23;20945;-80
2024/02/09 04:37:46;;;;;;;1.75;1.17;;;;;;;;;;1019970;28;20074;-81
2024/02/09 04:38:56;;;;;;;;;;;;;;;;;;1105816;23;20215;-79
2024/02/09 04:39:27;;;;;;;1.23;1.13;;;;;;;;;;1028246;28;19917;-82
2024/02/09 04:39:58;;;;;;;5.72;1.95;;;;;;;;;;1027649;23;20011;-77
2024/02/09 04:40:28;;;;;;;0.50;0.50;;;;;;;;;;1045285;23;20026;-78
2024/02/09 04:40:59;;;;;;;0.60;0.57;;;;;;;;;;1033413;23;20044;-77
2024/02/09 04:41:29;;;;;;;1.25;0.20;;;;;;;;;;1106291;23;20042;-78
2024/02/09 04:42:00;;;;;;;0.85;0.75;;;;;;;;;;1060917;23;20013;-77
2024/02/09 04:43:45;;;;;;;1.95;1.85;;;;;;;;;;1035589;23;20059;-82
2024/02/09 04:44:56;;;;;;;0.40;0.40;;;;;;;;;;1004174;23;2380384;-77
2024/02/09 04:45:29;;;;;;;1.15;0.50;;;;;;;;;;1025447;28;20153;-79
2024/02/09 04:46:03;;;;;;;2.78;2.58;;;;;;;;;;1096898;23;20042;-77
2024/02/09 04:46:34;;;;;;;2.95;2.67;;;;;;;;;;1020932;28;20411;-77
2024/02/09 04:47:43;;;;;;;0.55;0.47;;;;;;;;;;1048768;23;20042;-78
2024/02/09 04:49:36;;;;;;;0.00;0.00;;;;;;;;;;1026436;28;20020;-77
2024/02/09 04:50:07;;;;;;;1.35;1.35;;;;;;;;;;1067573;23;20037;-77
2024/02/09 04:53:01;;;;;;;4.25;0.90;;;;;;;;;;1166092;23;20018;-77
2024/02/09 04:53:40;;;;;;;6.82;2.75;;;;;;;;;;1020946;28;20035;-78
2024/02/09 04:54:49;;;;;;;1.95;1.38;;;;;;;;;;1048956;23;20054;-77
2024/02/09 04:55:19;;;;;;;0.80;0.80;;;;;;;;;;1034342;23;20034;-79
2024/02/09 04:55:50;;;;;;;6.53;1.83;;;;;;;;;;1051664;23;20038;-79
2024/02/09 04:56:30;;;;;;;0.55;0.45;;;;;;;;;;1138893;23;20150;-78
2024/02/09 04:57:00;;;;;;;1.45;0.38;;;;;;;;;;1059925;23;20263;-79
2024/02/09 04:57:31;;;;;;;1.67;1.45;;;;;;;;;;1083351;23;21192;-78
2024/02/09 04:59:52;;;;;;;;;;;;;;;;;;1083432;23;20093;-79
2024/02/09 05:01:41;;;;;;;3.05;2.38;;;;;;;;;;1081948;23;19929;-80
2024/02/09 05:02:15;;;;;;;0.60;0.60;;;;;;;;;;1060483;23;20039;-77
2024/02/09 05:03:25;;;;;;;;;;;;;;;;;;1050011;23;20451;-77
2024/02/09 05:03:59;;;;;;;2.83;0.73;;;;;;;;;;1026404;28;20292;-79
2024/02/09 05:04:30;;;;;;;6.60;1.00;;;;;;;;;;1097426;23;20153;-77
2024/02/09 05:06:16;;;;;;;0.68;0.68;;;;;;;;;;1029145;28;19929;-79
2024/02/09 05:06:47;;;;;;;2.45;1.15;;;;;;;;;;1057077;23;20112;-77
2024/02/09 05:07:55;;;;;;;2.90;1.88;;;;;;;;;;1037928;23;20019;-80
2024/02/09 05:08:26;;;;;;;1.27;1.17;;;;;;;;;;1048461;23;20062;-80
2024/02/09 05:09:29;;;;;;;1.15;1.15;;;;;;;;;;1043702;23;20038;-82
2024/02/09 05:10:00;;;;;;;0.22;0.22;;;;;;;;;;1063682;23;20018;-78
2024/02/09 05:10:31;;;;;;;2.30;0.75;;;;;;;;;;1027263;28;20037;-77
2024/02/09 05:11:02;;;;;;;0.40;0.40;;;;;;;;;;1031634;23;20049;-78
2024/02/09 05:11:34;;;;;;;1.25;1.15;;;;;;;;;;1075573;23;21241;-81
2024/02/09 05:12:06;;;;;;;0.32;0.32;;;;;;;;;;975557;23;20043;-79
2024/02/09 05:12:39;;;;;;;7.82;1.83;;;;;;;;;;1122519;23;20299;-78
2024/02/09 05:13:11;;;;;;;2.72;1.48;;;;;;;;;;1152221;23;20066;-77
2024/02/09 05:15:01;;;;;;;;;;;;;;;;;;1089407;23;20603;-77
2024/02/09 05:15:55;;;;;;;0.93;0.65;;;;;;;;;;1021108;28;20330;-79
2024/02/09 05:16:28;;;;;;;5.28;0.73;;;;;;;;;;1041409;23;20042;-79
2024/02/09 05:16:59;;;;;;;0.05;0.05;;;;;;;;;;979474;23;20606;-79
2024/02/09 05:17:39;;;;;;;26.35;1.77;;;;;;;;;;927303;23;20012;-80
2024/02/09 05:18:06;;;;;;;5.35;1.15;;;;;;;;;;1007638;23;20339;-77
2024/02/09 05:18:37;;;;;;;1.05;0.80;;;;;;;;;;1043931;23;20105;-77
2024/02/09 05:21:01;;;;;;;;;;;;;;;;;;1065041;23;20182;-79
2024/02/09 05:22:11;;;;;;;;;;;;;;;;;;1109510;23;20902;-81
2024/02/09 05:26:51;;;;;;;9.90;2.63;;;;;;;;;;1055589;23;20058;-80
2024/02/09 05:27:26;;;;;;;4.53;2.53;;;;;;;;;;1074423;23;20771;-78